Time;durP1;ratioP1;P1;durP2;ratioP2;P2;SDS_P1;SDS_P2;PMS_P1;PMS_P2;Temp;Humidity;BMP_temperature;BMP_pressure;BME280_temperature;BME280_humidity;BME280_pressure;Samples;Min_cycle;Max_cycle;Signal;HPM_P1;HPM_P2
2021/04/16 07:49:37;;;;;;;;;;;2.10;98.80;;;;;;6247187;23;19924;-96
2021/04/16 07:56:07;;;;;;;;;;;2.00;99.90;;;;;;6249105;23;19915;-96
2021/04/16 07:59:16;;;;;;;;;;;2.00;99.90;;;;;;6243398;23;19986;-96
2021/04/16 08:04:31;;;;;;;;;;;2.30;99.90;;;;;;6279762;22;19923;-95
2021/04/16 08:07:29;;;;;;;;;;;2.30;99.90;;;;;;6255254;22;19979;-96
2021/04/16 08:10:36;;;;;;;;;;;2.40;99.00;;;;;;6244848;22;19946;-96
2021/04/16 08:13:09;;;;;;;;;;;2.60;98.90;;;;;;6311660;22;19942;-96
2021/04/16 08:16:04;;;;;;;;;;;;;;;;;;;;;
2021/04/16 08:19:03;;;;;;;;;;;3.50;98.30;;;;;;6318877;22;19923;-96
2021/04/16 08:21:41;;;;;;;;;;;3.30;96.40;;;;;;6295850;22;19919;-95
2021/04/16 08:24:35;;;;;;;;;;;3.20;96.90;;;;;;6322099;22;19976;-95
2021/04/16 08:27:28;;;;;;;;;;;3.10;96.70;;;;;;6269568;22;19926;-96
2021/04/16 08:30:40;;;;;;;;;;;;;;;;;;;;;
2021/04/16 08:33:45;;;;;;;;;;;3.30;96.00;;;;;;6324101;22;20240;-95
2021/04/16 08:36:38;;;;;;;;;;;3.60;97.40;;;;;;6325273;22;19928;-96
2021/04/16 08:39:30;;;;;;;;;;;4.20;94.10;;;;;;6346453;22;19926;-95
2021/04/16 08:42:18;;;;;;;;;;;3.80;93.60;;;;;;6352962;22;19918;-95
2021/04/16 08:44:52;;;;;;;;;;;3.30;95.60;;;;;;6321938;22;19918;-96
2021/04/16 08:47:29;;;;;;;;;;;3.10;95.90;;;;;;6323972;22;19995;-95
2021/04/16 08:50:06;;;;;;;;;;;2.80;95.00;;;;;;6331382;22;19918;-95
2021/04/16 08:53:01;;;;;;;;;;;2.80;96.10;;;;;;6337791;22;19925;-96
2021/04/16 08:55:52;;;;;;;;;;;2.90;96.10;;;;;;6332388;22;19953;-96
2021/04/16 08:58:45;;;;;;;;;;;3.00;96.10;;;;;;6344874;22;19906;-96
2021/04/16 09:01:33;;;;;;;;;;;3.10;95.60;;;;;;6330283;22;19925;-96
2021/04/16 09:04:17;;;;;;;;;;;3.10;96.20;;;;;;6324222;22;19919;-96
2021/04/16 09:07:00;;;;;;;;;;;3.00;97.50;;;;;;6324307;22;19949;-96
2021/04/16 09:09:43;;;;;;;;;;;3.20;97.10;;;;;;6325356;22;19919;-95
2021/04/16 09:12:11;;;;;;;;;;;3.20;96.90;;;;;;6321562;22;19925;-96
2021/04/16 09:14:39;;;;;;;;;;;3.10;96.00;;;;;;6323714;22;19919;-96
2021/04/16 09:17:08;;;;;;;;;;;3.20;94.50;;;;;;6325451;22;19963;-96
2021/04/16 09:19:43;;;;;;;;;;;3.30;94.70;;;;;;6328115;22;19918;-96
2021/04/16 09:22:22;;;;;;;;;;;3.30;94.80;;;;;;6328267;22;19929;-96
2021/04/16 09:25:08;;;;;;;;;;;3.40;95.10;;;;;;6327182;22;19946;-94
2021/04/16 09:27:49;;;;;;;;;;;3.40;95.20;;;;;;6354401;22;19918;-96
2021/04/16 09:30:42;;;;;;;;;;;3.40;95.50;;;;;;6326466;22;19919;-96
2021/04/16 09:33:44;;;;;;;;;;;3.50;95.90;;;;;;6328645;22;19961;-95
2021/04/16 14:11:12;;;;;;;;;;;4.30;96.00;;;;;;6312691;22;21024;31
2021/04/16 14:26:39;;;;;;;;;;;4.40;96.50;;;;;;6328950;22;19963;-95
2021/04/16 14:32:56;;;;;;;;;;;4.50;96.40;;;;;;6289286;22;20336;-96
2021/04/16 14:52:04;;;;;;;;;;;4.60;95.70;;;;;;6347177;22;19918;-95
2021/04/16 15:25:29;;;;;;;;;;;4.20;96.60;;;;;;6332742;22;19922;-96
2021/04/16 16:13:37;;;;;;;;;;;;;;;;;;;;;
2021/04/16 17:00:46;;;;;;;;;;;2.90;99.90;;;;;;6338410;22;19918;-96
2021/04/16 17:03:30;;;;;;;;;;;3.00;99.90;;;;;;6321832;22;19919;-96
2021/04/16 19:44:37;;;;;;;;;;;2.00;99.90;;;;;;6318564;22;19918;-96
2021/04/16 20:18:39;;;;;;;;;;;2.30;99.90;;;;;;6228749;23;19949;-96
2021/04/16 20:21:40;;;;;;;;;;;2.30;99.90;;;;;;6110379;23;19928;-96
2021/04/16 20:24:44;;;;;;;;;;;2.30;99.90;;;;;;6115624;23;19952;-95
2021/04/16 20:27:48;;;;;;;;;;;2.20;99.90;;;;;;6111366;23;19945;-96
2021/04/16 20:30:29;;;;;;;;;;;2.20;99.90;;;;;;6054178;23;19921;-96
2021/04/16 20:33:33;;;;;;;;;;;2.10;99.90;;;;;;6058092;23;19962;-96
2021/04/16 20:36:23;;;;;;;;;;;1.90;99.90;;;;;;6051457;23;19921;-96
2021/04/16 20:39:09;;;;;;;;;;;1.90;99.90;;;;;;6050015;23;19922;-96
2021/04/16 20:41:48;;;;;;;;;;;1.90;99.90;;;;;;6029846;23;19926;-96
2021/04/16 20:44:34;;;;;;;;;;;1.70;99.90;;;;;;6038207;23;19922;-96
2021/04/16 20:47:32;;;;;;;;;;;1.70;99.90;;;;;;6081635;23;19949;-96
2021/04/16 20:50:24;;;;;;;;;;;1.70;99.90;;;;;;6232209;22;19907;-96
2021/04/16 21:27:55;;;;;;;;;;;1.70;99.90;;;;;;6297501;22;19929;-94
